Time;durP1;ratioP1;P1;durP2;ratioP2;P2;SDS_P1;SDS_P2;PMS_P1;PMS_P2;Temp;Humidity;BMP_temperature;BMP_pressure;BME280_temperature;BME280_humidity;BME280_pressure;Samples;Min_cycle;Max_cycle;Signal;HPM_P1;HPM_P2
2022/03/12 00:01:13;;;;;;;11.85;7.38;;;7.00;87.90;;;;;;5093601;28;20048;-84
2022/03/12 00:03:40;;;;;;;13.32;7.20;;;7.10;88.00;;;;;;5075553;28;20055;-84
2022/03/12 00:06:09;;;;;;;12.30;7.47;;;7.30;86.40;;;;;;5076967;28;20062;-84
2022/03/12 00:08:44;;;;;;;12.57;7.63;;;7.30;86.00;;;;;;5109957;28;20054;-84
2022/03/12 00:11:13;;;;;;;15.43;7.63;;;7.30;86.50;;;;;;5079352;28;20067;-84
2022/03/12 00:13:39;;;;;;;12.60;7.60;;;6.80;87.60;;;;;;5110105;28;20043;-83
2022/03/12 00:16:12;;;;;;;12.30;7.53;;;7.10;88.00;;;;;;5110845;28;20047;-84
2022/03/12 00:18:39;;;;;;;11.70;8.07;;;7.00;89.30;;;;;;5077734;28;20142;-84
2022/03/12 00:21:06;;;;;;;12.30;7.65;;;7.10;88.00;;;;;;5109489;28;20051;-84
2022/03/12 00:23:32;;;;;;;8.77;6.40;;;7.00;89.20;;;;;;5093578;28;20043;-85
2022/03/12 00:25:59;;;;;;;10.05;7.47;;;6.90;90.00;;;;;;5093264;28;20075;-84
2022/03/12 00:28:25;;;;;;;12.00;7.32;;;7.00;89.80;;;;;;5093278;28;20100;-85
2022/03/12 00:30:51;;;;;;;14.63;7.00;;;6.80;90.40;;;;;;5092573;28;20081;-83
2022/03/12 00:33:18;;;;;;;10.90;7.32;;;6.70;90.80;;;;;;5093014;28;20059;-84
2022/03/12 00:35:47;;;;;;;12.05;7.53;;;6.80;90.50;;;;;;5109360;28;20044;-84
2022/03/12 00:38:14;;;;;;;10.60;7.55;;;6.70;90.90;;;;;;5092942;28;20578;-84
2022/03/12 00:40:39;;;;;;;12.20;7.45;;;6.60;91.70;;;;;;5109586;28;20055;-84
2022/03/12 00:43:06;;;;;;;10.95;7.97;;;6.60;91.60;;;;;;5092670;28;20044;-84
2022/03/12 00:45:31;;;;;;;12.20;7.72;;;6.50;92.00;;;;;;5076282;28;20043;-84
2022/03/12 00:47:57;;;;;;;11.70;8.18;;;6.50;92.40;;;;;;5092123;28;20131;-84
2022/03/12 00:50:23;;;;;;;13.35;8.65;;;6.30;93.30;;;;;;5109804;28;20047;-84
2022/03/12 00:52:48;;;;;;;10.50;7.55;;;6.30;93.50;;;;;;5109281;28;20052;-83
2022/03/12 00:55:14;;;;;;;9.70;8.00;;;6.40;92.90;;;;;;5076018;28;20104;-84
2022/03/12 00:57:40;;;;;;;12.82;7.85;;;6.50;92.90;;;;;;5109629;28;20110;-85
2022/03/12 01:00:13;;;;;;;12.68;7.93;;;6.30;93.40;;;;;;5108844;28;20095;-85
2022/03/12 01:02:39;;;;;;;10.85;8.35;;;6.30;93.30;;;;;;5110774;28;20156;-84
2022/03/12 01:05:05;;;;;;;10.82;8.57;;;6.30;93.50;;;;;;5109209;28;20668;-85
2022/03/12 01:07:31;;;;;;;15.90;8.70;;;6.20;93.80;;;;;;5127025;28;20586;-84
2022/03/12 01:09:56;;;;;;;12.65;8.32;;;6.30;93.60;;;;;;5110149;28;20040;-84
2022/03/12 01:12:22;;;;;;;10.80;8.40;;;6.30;93.30;;;;;;5109810;28;20151;-84
2022/03/12 01:14:48;;;;;;;10.35;8.27;;;6.30;93.40;;;;;;5092553;28;20051;-83
2022/03/12 01:17:14;;;;;;;12.32;8.18;;;6.40;93.70;;;;;;5109583;28;20047;-84
2022/03/12 01:19:40;;;;;;;11.20;8.20;;;6.30;93.50;;;;;;5110193;28;20139;-83
2022/03/12 01:22:06;;;;;;;12.43;8.10;;;6.20;94.00;;;;;;5095907;28;20138;-84
2022/03/12 01:24:33;;;;;;;11.80;7.68;;;6.30;93.80;;;;;;5113400;28;20051;-84
2022/03/12 01:26:58;;;;;;;12.05;7.55;;;6.30;93.80;;;;;;5096973;28;20133;-84
2022/03/12 01:29:25;;;;;;;11.15;7.50;;;6.30;93.80;;;;;;5079373;28;20465;-84
2022/03/12 01:31:51;;;;;;;13.25;7.65;;;6.40;93.40;;;;;;5112922;27;20075;-82
2022/03/12 01:34:16;;;;;;;13.38;7.75;;;6.40;93.40;;;;;;5085522;28;20466;-85
2022/03/12 01:36:42;;;;;;;10.40;7.47;;;6.40;93.40;;;;;;5121240;28;20054;-85
2022/03/12 01:39:07;;;;;;;11.20;7.80;;;6.30;93.70;;;;;;5115315;28;20087;-84
2022/03/12 01:41:34;;;;;;;14.95;8.35;;;6.30;94.30;;;;;;5112974;28;20043;-84
2022/03/12 01:44:00;;;;;;;11.73;8.45;;;6.30;93.80;;;;;;5111931;28;20040;-84
2022/03/12 01:46:34;;;;;;;14.52;8.23;;;6.90;94.00;;;;;;5079167;28;20051;-84
2022/03/12 01:49:04;;;;;;;13.40;7.70;;;6.30;94.10;;;;;;5095543;28;20047;-84
2022/03/12 01:51:29;;;;;;;10.98;7.97;;;6.30;94.40;;;;;;5096542;28;20058;-84
2022/03/12 01:53:55;;;;;;;14.40;8.55;;;6.30;93.90;;;;;;5095298;28;20048;-84
2022/03/12 01:56:26;;;;;;;12.95;8.43;;;6.30;94.30;;;;;;5078949;28;20128;-85
2022/03/12 01:58:52;;;;;;;13.85;8.00;;;7.00;94.40;;;;;;5078668;28;20060;-84
2022/03/12 02:01:18;;;;;;;13.80;7.68;;;6.30;94.30;;;;;;5095074;28;20047;-84
2022/03/12 02:03:45;;;;;;;11.70;8.15;;;6.20;94.30;;;;;;5113239;28;20071;-84
2022/03/12 02:06:19;;;;;;;12.30;7.70;;;6.20;94.60;;;;;;5111811;28;20055;-84
2022/03/12 02:08:48;;;;;;;13.13;8.05;;;6.30;94.50;;;;;;5096136;28;20066;-84
2022/03/12 02:11:13;;;;;;;10.68;7.78;;;6.30;94.50;;;;;;5112033;28;20144;-84
2022/03/12 02:13:39;;;;;;;15.43;8.30;;;6.20;94.70;;;;;;5095376;28;20495;-84
2022/03/12 02:16:07;;;;;;;10.73;7.65;;;6.20;94.70;;;;;;5113347;28;20048;-84
2022/03/12 02:18:33;;;;;;;12.48;9.23;;;6.30;94.60;;;;;;5128852;28;20028;-83
2022/03/12 02:20:58;;;;;;;11.25;7.40;;;6.30;95.10;;;;;;5114394;28;20062;-83
2022/03/12 02:23:25;;;;;;;15.85;8.93;;;7.60;95.50;;;;;;5131640;28;20048;-83
2022/03/12 02:25:51;;;;;;;15.82;8.55;;;6.20;95.00;;;;;;5089895;28;20047;-84
2022/03/12 02:28:17;;;;;;;11.52;8.43;;;6.20;95.50;;;;;;5080976;28;20337;-84
2022/03/12 02:30:48;;;;;;;13.75;8.25;;;6.10;95.80;;;;;;5097247;28;20047;-84
2022/03/12 02:33:14;;;;;;;11.25;8.45;;;6.20;95.60;;;;;;5095214;28;20051;-84
2022/03/12 02:35:42;;;;;;;15.60;8.32;;;6.10;95.70;;;;;;5096270;28;20454;-84
2022/03/12 02:38:07;;;;;;;10.25;7.97;;;6.20;95.10;;;;;;5113409;28;20051;-84
2022/03/12 02:40:33;;;;;;;11.15;8.07;;;7.00;95.90;;;;;;5095974;28;20122;-84
2022/03/12 02:43:00;;;;;;;10.15;7.80;;;6.20;95.70;;;;;;5112059;28;20096;-83
2022/03/12 02:45:28;;;;;;;12.90;8.60;;;6.00;95.90;;;;;;5112596;28;20071;-86
2022/03/12 02:47:57;;;;;;;11.25;7.47;;;6.10;95.90;;;;;;5095141;28;20499;-84
2022/03/12 02:50:23;;;;;;;13.25;7.68;;;6.30;95.70;;;;;;5111627;28;20051;-85
2022/03/12 02:52:49;;;;;;;11.80;8.70;;;6.10;95.60;;;;;;5078393;28;20457;-84
2022/03/12 02:55:24;;;;;;;12.45;8.88;;;6.10;95.70;;;;;;5110781;28;20040;-85
2022/03/12 02:57:50;;;;;;;10.35;8.00;;;6.10;95.90;;;;;;5094936;28;20456;-85
2022/03/12 03:00:17;;;;;;;12.45;7.95;;;6.10;95.70;;;;;;5094232;28;20139;-85
2022/03/12 03:02:47;;;;;;;14.80;7.72;;;6.10;95.70;;;;;;5061207;28;20063;-85
2022/03/12 03:08:03;;;;;;;15.98;8.15;;;6.10;95.90;;;;;;5111374;28;20100;-84
2022/03/12 03:10:34;;;;;;;12.57;8.38;;;6.20;96.00;;;;;;5094785;28;20112;-85
2022/03/12 03:13:19;;;;;;;14.55;8.48;;;6.10;95.90;;;;;;5094397;28;20054;-85
2022/03/12 03:15:46;;;;;;;10.55;7.78;;;6.20;95.60;;;;;;5095188;28;20057;-84
2022/03/12 03:18:13;;;;;;;14.75;8.27;;;6.20;95.30;;;;;;5076912;28;20063;-84
2022/03/12 03:20:39;;;;;;;11.98;7.88;;;6.20;95.70;;;;;;5077480;28;20079;-84
2022/03/12 03:23:06;;;;;;;14.02;8.68;;;6.10;96.00;;;;;;5093563;28;20446;-84
2022/03/12 03:25:32;;;;;;;13.52;8.07;;;6.30;95.30;;;;;;5094018;28;20059;-85
2022/03/12 03:27:58;;;;;;;11.05;7.18;;;6.20;95.60;;;;;;5111217;28;20052;-84
2022/03/12 03:30:23;;;;;;;13.30;8.38;;;6.20;95.90;;;;;;5093265;28;20068;-85
2022/03/12 03:32:49;;;;;;;13.88;8.52;;;6.10;95.80;;;;;;5094382;28;20181;-85
2022/03/12 03:35:18;;;;;;;12.07;8.05;;;6.10;95.70;;;;;;5113100;28;20483;-86
2022/03/12 03:37:44;;;;;;;9.20;7.90;;;6.00;96.40;;;;;;5128790;27;20042;-84
2022/03/12 03:40:10;;;;;;;12.88;7.50;;;6.00;96.20;;;;;;5114069;27;20051;-85
2022/03/12 03:42:36;;;;;;;13.38;8.55;;;6.10;96.20;;;;;;5100190;27;20047;-86
2022/03/12 03:45:02;;;;;;;12.45;8.30;;;6.10;96.60;;;;;;5097816;28;20050;-84
2022/03/12 03:47:28;;;;;;;11.38;8.32;;;6.00;96.70;;;;;;5130260;27;20066;-85
2022/03/12 03:49:55;;;;;;;11.00;7.63;;;6.00;97.00;;;;;;5105547;27;20039;-85
2022/03/12 03:52:20;;;;;;;15.50;8.60;;;5.90;97.30;;;;;;5124875;27;20046;-85
2022/03/12 03:54:46;;;;;;;13.15;8.45;;;5.80;97.40;;;;;;5125964;27;20179;-84
2022/03/12 03:57:13;;;;;;;11.70;8.45;;;6.10;97.80;;;;;;5129410;27;20478;-86
2022/03/12 03:59:39;;;;;;;11.40;7.72;;;5.90;97.20;;;;;;5113441;27;20111;-84
2022/03/12 04:02:05;;;;;;;13.60;8.55;;;5.90;97.40;;;;;;5096910;27;20113;-84
2022/03/12 04:04:33;;;;;;;23.45;9.10;;;5.80;97.70;;;;;;5130441;27;20063;-84
2022/03/12 04:06:59;;;;;;;12.35;8.40;;;6.10;98.00;;;;;;5131047;27;20047;-84
2022/03/12 04:09:25;;;;;;;12.75;8.25;;;6.40;98.30;;;;;;5130525;27;20055;-83
2022/03/12 04:11:51;;;;;;;11.73;7.40;;;5.80;98.00;;;;;;5132214;27;20096;-84
2022/03/12 04:14:16;;;;;;;11.75;8.30;;;5.70;98.10;;;;;;5130408;27;20051;-83
2022/03/12 04:16:45;;;;;;;9.70;7.80;;;5.70;97.90;;;;;;5130939;27;20051;-84
2022/03/12 04:19:11;;;;;;;10.18;7.68;;;6.20;98.10;;;;;;5113318;28;20580;-84
2022/03/12 04:21:37;;;;;;;11.85;7.72;;;5.60;98.30;;;;;;5113761;28;20086;-84
2022/03/12 04:24:03;;;;;;;10.75;7.95;;;5.70;98.10;;;;;;5113415;28;20098;-84
2022/03/12 04:26:30;;;;;;;10.15;7.72;;;5.50;98.40;;;;;;5113410;28;20058;-84
2022/03/12 04:28:57;;;;;;;14.45;8.48;;;5.60;98.00;;;;;;5131213;28;20131;-84
2022/03/12 04:31:23;;;;;;;13.77;8.13;;;5.50;98.60;;;;;;5130897;28;20149;-83
2022/03/12 04:33:51;;;;;;;11.50;7.97;;;5.40;98.80;;;;;;5130920;28;20134;-84
2022/03/12 04:36:17;;;;;;;11.55;7.50;;;5.40;98.90;;;;;;5113645;28;20055;-84
2022/03/12 04:38:42;;;;;;;10.43;7.32;;;5.40;98.90;;;;;;5130934;28;20074;-84
2022/03/12 04:41:08;;;;;;;12.05;8.43;;;5.30;99.10;;;;;;5113607;28;20483;-84
2022/03/12 04:43:34;;;;;;;9.35;7.50;;;5.30;99.60;;;;;;5113456;28;20043;-85
2022/03/12 04:46:00;;;;;;;11.90;8.05;;;5.20;99.60;;;;;;5130671;28;20055;-84
2022/03/12 04:48:26;;;;;;;10.60;8.02;;;5.30;99.50;;;;;;5113210;28;20058;-84
2022/03/12 04:50:52;;;;;;;13.00;8.30;;;5.30;99.50;;;;;;5113382;28;20367;-84
2022/03/12 04:53:18;;;;;;;10.23;7.60;;;5.60;99.50;;;;;;5113524;28;20054;-83
2022/03/12 04:55:45;;;;;;;11.02;7.68;;;5.30;99.40;;;;;;5082089;27;20039;-84
2022/03/12 04:58:12;;;;;;;11.00;7.85;;;5.30;99.30;;;;;;5100940;27;20511;-85
2022/03/12 05:00:38;;;;;;;11.38;8.05;;;5.30;99.30;;;;;;5134586;27;20057;-85
2022/03/12 05:03:08;;;;;;;10.30;7.45;;;5.50;99.20;;;;;;5134163;27;20134;-83
2022/03/12 05:05:41;;;;;;;11.05;7.38;;;5.20;99.40;;;;;;5099803;27;20047;-84
2022/03/12 05:08:11;;;;;;;15.02;8.10;;;5.30;99.00;;;;;;5118001;27;20548;-84
2022/03/12 05:10:37;;;;;;;11.55;8.13;;;5.10;99.50;;;;;;5117542;27;20051;-85
2022/03/12 05:13:02;;;;;;;13.63;8.43;;;5.10;99.50;;;;;;5117486;27;20171;-84
2022/03/12 05:15:32;;;;;;;10.82;7.95;;;5.10;99.70;;;;;;5134181;27;20054;-85
2022/03/12 05:17:58;;;;;;;14.40;8.13;;;5.00;99.90;;;;;;5101234;27;20043;-85
2022/03/12 05:20:25;;;;;;;10.50;7.07;;;5.00;99.70;;;;;;5116655;27;20123;-84
2022/03/12 05:22:51;;;;;;;10.32;7.28;;;5.80;99.50;;;;;;5134330;27;20043;-84
2022/03/12 05:25:18;;;;;;;10.85;7.68;;;5.10;99.40;;;;;;5116997;27;20475;-83
2022/03/12 05:27:47;;;;;;;12.52;7.40;;;5.80;99.70;;;;;;5117589;27;20101;-84
2022/03/12 05:30:13;;;;;;;11.10;7.10;;;5.80;99.90;;;;;;5135720;27;20050;-85
2022/03/12 05:32:39;;;;;;;10.77;7.50;;;5.00;99.50;;;;;;5117116;27;20398;-85
2022/03/12 05:35:06;;;;;;;10.02;7.63;;;5.10;99.50;;;;;;5135671;27;20066;-83
2022/03/12 05:37:32;;;;;;;10.02;7.22;;;4.90;99.80;;;;;;5151744;27;20072;-84
2022/03/12 05:39:58;;;;;;;9.88;6.88;;;5.40;99.90;;;;;;5154184;27;20047;-84
2022/03/12 05:42:23;;;;;;;9.45;7.03;;;4.90;99.70;;;;;;5136098;27;20055;-84
2022/03/12 05:44:50;;;;;;;10.27;7.28;;;4.90;99.70;;;;;;5130939;27;20085;-85
2022/03/12 05:47:17;;;;;;;9.73;7.05;;;5.70;99.90;;;;;;5104007;27;20429;-85
2022/03/12 05:49:43;;;;;;;9.93;7.13;;;4.80;99.90;;;;;;5136407;27;20091;-85
2022/03/12 05:52:09;;;;;;;10.02;7.10;;;4.90;99.90;;;;;;5135177;27;20380;-84
2022/03/12 05:54:36;;;;;;;9.40;7.15;;;4.80;99.90;;;;;;5134246;27;20051;-84
2022/03/12 05:57:02;;;;;;;10.20;6.97;;;4.90;99.90;;;;;;5117481;27;20130;-84
2022/03/12 05:59:28;;;;;;;12.02;7.00;;;4.80;99.90;;;;;;5116500;27;20046;-85
2022/03/12 06:01:53;;;;;;;10.43;7.20;;;4.80;99.90;;;;;;5133601;27;20489;-85
2022/03/12 06:04:23;;;;;;;10.68;6.70;;;4.70;99.90;;;;;;5115921;27;20153;-82
2022/03/12 06:06:49;;;;;;;10.60;6.65;;;4.80;99.90;;;;;;5132936;27;20047;-85
2022/03/12 06:09:15;;;;;;;8.98;7.03;;;4.70;99.90;;;;;;5133515;27;20047;-84
2022/03/12 06:11:42;;;;;;;8.65;6.70;;;4.70;99.90;;;;;;5132763;27;20096;-84
2022/03/12 06:14:10;;;;;;;8.93;6.80;;;4.80;99.90;;;;;;5116996;27;20074;-85
2022/03/12 06:16:36;;;;;;;10.45;6.72;;;4.80;99.90;;;;;;5099661;27;20047;-85
2022/03/12 06:19:02;;;;;;;11.63;6.97;;;5.60;99.90;;;;;;5116119;27;20523;-85
2022/03/12 06:21:28;;;;;;;10.18;6.90;;;4.90;99.90;;;;;;5116444;27;20043;-85
2022/03/12 06:23:56;;;;;;;10.13;7.22;;;5.10;99.60;;;;;;5134293;27;20100;-85
2022/03/12 06:26:25;;;;;;;9.48;6.40;;;5.00;99.80;;;;;;5134368;27;20035;-85
2022/03/12 06:28:50;;;;;;;10.70;7.40;;;5.00;99.70;;;;;;5133760;27;20491;-84
2022/03/12 06:31:17;;;;;;;10.27;6.72;;;4.90;99.90;;;;;;5145795;27;20131;-83
2022/03/12 06:33:42;;;;;;;11.80;7.05;;;5.90;99.90;;;;;;5147097;27;20255;-85
2022/03/12 06:36:09;;;;;;;9.07;6.40;;;5.10;99.60;;;;;;5098882;27;20068;-85
2022/03/12 06:38:37;;;;;;;10.15;6.40;;;5.10;99.90;;;;;;5132471;27;20043;-84
2022/03/12 06:41:02;;;;;;;9.52;6.28;;;5.10;99.50;;;;;;5132423;27;20039;-85
2022/03/12 06:43:28;;;;;;;9.90;7.20;;;5.10;99.70;;;;;;5132170;27;20055;-84
2022/03/12 06:45:56;;;;;;;13.07;6.85;;;5.80;99.50;;;;;;5098870;27;20062;-84
2022/03/12 06:48:23;;;;;;;10.23;6.60;;;5.20;99.40;;;;;;5099357;27;20526;-84
2022/03/12 06:50:48;;;;;;;10.30;6.90;;;5.10;99.40;;;;;;5115090;27;20051;-84
2022/03/12 06:53:14;;;;;;;11.20;6.97;;;5.80;99.10;;;;;;5133682;27;20486;-84
2022/03/12 06:55:42;;;;;;;9.85;7.05;;;5.30;99.20;;;;;;5131642;27;20483;-84
2022/03/12 06:58:07;;;;;;;10.98;7.43;;;5.30;98.80;;;;;;5133916;27;20043;-84
2022/03/12 07:00:33;;;;;;;9.55;6.95;;;5.30;99.30;;;;;;5115013;27;20107;-86
2022/03/12 07:02:59;;;;;;;13.20;6.97;;;5.30;99.00;;;;;;5115135;27;20055;-85
2022/03/12 07:05:25;;;;;;;8.73;6.63;;;5.40;98.90;;;;;;5114942;27;20047;-83
2022/03/12 07:07:51;;;;;;;9.05;6.47;;;5.50;98.90;;;;;;5131548;27;20115;-85
2022/03/12 07:10:17;;;;;;;9.07;6.80;;;5.50;98.70;;;;;;5115037;27;20050;-84
2022/03/12 07:12:44;;;;;;;10.32;7.05;;;5.60;98.80;;;;;;5080844;27;20050;-85
2022/03/12 07:15:10;;;;;;;10.90;6.75;;;6.20;99.00;;;;;;5115127;27;20055;-83
2022/03/12 07:17:36;;;;;;;12.63;6.80;;;5.60;99.20;;;;;;5097644;27;20049;-85
2022/03/12 07:20:03;;;;;;;11.30;7.03;;;5.80;98.20;;;;;;5131711;27;20395;-83
2022/03/12 07:22:30;;;;;;;10.30;6.65;;;5.90;98.10;;;;;;5133090;27;20047;-84
2022/03/12 07:24:55;;;;;;;9.57;6.88;;;6.00;98.00;;;;;;5115291;27;20391;-85
2022/03/12 07:27:21;;;;;;;9.18;6.75;;;5.90;98.20;;;;;;5133264;27;20060;-84
2022/03/12 07:29:47;;;;;;;12.00;6.85;;;6.00;97.90;;;;;;5131414;27;20043;-85
2022/03/12 07:32:13;;;;;;;9.10;6.57;;;6.10;98.00;;;;;;5131881;27;20125;-84
2022/03/12 07:34:38;;;;;;;12.00;6.90;;;6.30;98.10;;;;;;5130894;27;20054;-85
2022/03/12 07:37:04;;;;;;;9.52;7.15;;;6.20;97.80;;;;;;5133049;27;20497;-84
2022/03/12 07:39:30;;;;;;;11.95;7.00;;;6.40;98.00;;;;;;5132892;27;20127;-82
2022/03/12 07:41:56;;;;;;;11.73;7.15;;;6.40;97.90;;;;;;5114373;27;20479;-84
2022/03/12 07:44:24;;;;;;;9.65;7.18;;;6.50;98.10;;;;;;5131120;27;20050;-84
2022/03/12 07:46:50;;;;;;;13.57;7.68;;;6.60;97.80;;;;;;5130530;27;21011;-85
2022/03/12 07:49:16;;;;;;;11.20;7.00;;;7.10;97.20;;;;;;5131882;27;20111;-85
2022/03/12 07:51:43;;;;;;;19.50;7.55;;;7.70;94.80;;;;;;5132318;27;20051;-84
2022/03/12 07:54:10;;;;;;;14.70;7.40;;;8.30;93.90;;;;;;5114133;27;20058;-85
2022/03/12 07:56:36;;;;;;;11.43;7.07;;;8.60;92.70;;;;;;5131893;27;20566;-85
2022/03/12 07:59:02;;;;;;;12.48;7.25;;;9.30;91.10;;;;;;5132743;27;20039;-84
2022/03/12 08:01:28;;;;;;;8.43;7.03;;;9.80;90.10;;;;;;5114127;27;20432;-84
2022/03/12 08:03:54;;;;;;;10.07;6.60;;;10.20;88.60;;;;;;5131613;27;20087;-85
2022/03/12 08:06:20;;;;;;;11.55;8.05;;;10.50;85.20;;;;;;5132444;27;20059;-84
2022/03/12 08:08:46;;;;;;;10.43;7.57;;;10.60;82.30;;;;;;5129983;27;20043;-85
2022/03/12 08:11:30;;;;;;;9.07;7.25;;;10.40;82.60;;;;;;5131146;27;20054;-84
2022/03/12 08:14:06;;;;;;;12.27;7.93;;;9.80;83.70;;;;;;5102013;27;20436;-84
2022/03/12 08:16:33;;;;;;;13.02;7.55;;;9.90;86.00;;;;;;5131168;27;20047;-84
2022/03/12 08:19:00;;;;;;;12.65;7.38;;;10.50;85.80;;;;;;5130232;27;20126;-84
2022/03/12 08:21:26;;;;;;;11.88;7.70;;;10.60;83.50;;;;;;5096559;28;20095;-85
2022/03/12 08:23:51;;;;;;;12.45;7.35;;;10.60;84.20;;;;;;5096092;28;20043;-85
2022/03/12 08:26:18;;;;;;;13.10;7.97;;;10.40;83.00;;;;;;5130361;28;20490;-84
2022/03/12 08:28:44;;;;;;;13.18;7.47;;;10.20;84.30;;;;;;5130324;28;20050;-83
2022/03/12 08:31:10;;;;;;;10.52;8.20;;;10.00;86.00;;;;;;5131773;27;20055;-85
2022/03/12 08:33:37;;;;;;;11.85;7.78;;;10.00;87.20;;;;;;5115037;27;20372;-83
2022/03/12 08:36:04;;;;;;;10.55;7.45;;;10.20;86.00;;;;;;5128248;27;20574;-83
2022/03/12 08:38:34;;;;;;;11.15;7.22;;;10.20;87.30;;;;;;5133432;27;20483;-83
2022/03/12 08:41:01;;;;;;;9.95;7.68;;;10.20;88.20;;;;;;5124250;27;20043;-83
2022/03/12 08:43:27;;;;;;;10.88;8.20;;;10.30;87.00;;;;;;5114942;28;20044;-82
2022/03/12 08:45:53;;;;;;;12.43;8.20;;;10.80;87.50;;;;;;5127045;27;20051;-82
2022/03/12 08:48:19;;;;;;;11.38;7.85;;;11.10;85.90;;;;;;5133659;27;20100;-82
2022/03/12 08:50:45;;;;;;;12.05;7.80;;;11.60;84.60;;;;;;5132992;27;20095;-82
2022/03/12 08:53:11;;;;;;;11.10;8.10;;;12.00;82.60;;;;;;5115363;27;20055;-83
2022/03/12 08:55:38;;;;;;;11.07;7.72;;;11.90;82.10;;;;;;5116660;27;20118;-84
2022/03/12 08:58:05;;;;;;;14.68;8.57;;;12.10;81.70;;;;;;5133852;27;20053;-83
2022/03/12 09:00:31;;;;;;;16.33;8.60;;;11.90;83.60;;;;;;5099793;27;20123;-83
2022/03/12 09:02:57;;;;;;;9.48;7.60;;;11.90;84.20;;;;;;5113917;27;20055;-83
2022/03/12 09:05:23;;;;;;;11.63;8.70;;;12.20;84.00;;;;;;5125368;27;20055;-82
2022/03/12 09:07:51;;;;;;;12.15;8.70;;;12.20;82.90;;;;;;5132944;27;20130;-83
2022/03/12 09:10:17;;;;;;;10.68;8.25;;;12.30;82.10;;;;;;5117705;27;20051;-82
2022/03/12 09:12:42;;;;;;;12.10;8.68;;;12.40;82.20;;;;;;5134400;27;20126;-82
2022/03/12 09:15:09;;;;;;;11.10;8.30;;;12.40;82.80;;;;;;5131833;27;20043;-81
2022/03/12 09:17:35;;;;;;;10.25;8.63;;;12.70;82.50;;;;;;5122063;27;20085;-82
2022/03/12 09:20:02;;;;;;;12.10;8.38;;;12.50;85.10;;;;;;5113004;27;20079;-83
2022/03/12 09:22:27;;;;;;;11.07;8.82;;;12.90;85.10;;;;;;5116186;27;20047;-82
2022/03/12 09:24:53;;;;;;;12.98;8.93;;;13.10;86.30;;;;;;5106316;28;20510;-82
2022/03/12 09:27:19;;;;;;;9.25;7.97;;;13.60;84.00;;;;;;5114942;28;20047;-83
2022/03/12 09:29:44;;;;;;;11.30;8.45;;;13.50;85.60;;;;;;5113031;28;20051;-83
2022/03/12 09:32:10;;;;;;;12.88;8.20;;;13.90;86.20;;;;;;5121027;27;20519;-84
2022/03/12 09:34:37;;;;;;;15.60;8.88;;;14.30;86.50;;;;;;5132378;27;20047;-83
2022/03/12 09:37:03;;;;;;;14.77;9.48;;;14.60;85.80;;;;;;5096709;27;20471;-85
2022/03/12 09:39:30;;;;;;;12.18;8.63;;;14.70;85.40;;;;;;5132748;27;20526;-86
2022/03/12 09:41:56;;;;;;;12.75;8.75;;;14.80;83.70;;;;;;5130695;27;20035;-87
2022/03/12 09:44:21;;;;;;;11.65;8.95;;;15.00;83.30;;;;;;5112612;27;20047;-85
2022/03/12 09:46:47;;;;;;;12.35;8.75;;;14.60;85.50;;;;;;5127258;27;20054;-86
2022/03/12 09:49:13;;;;;;;10.98;9.00;;;14.70;86.60;;;;;;5112964;27;20468;-87
2022/03/12 09:51:39;;;;;;;12.65;9.18;;;14.70;88.80;;;;;;5128244;27;20055;-85
2022/03/12 09:54:04;;;;;;;13.48;8.40;;;14.90;89.10;;;;;;5113391;27;20049;-84
2022/03/12 09:56:30;;;;;;;11.05;8.48;;;15.00;89.60;;;;;;5097724;27;20192;-85
2022/03/12 09:58:56;;;;;;;11.65;8.75;;;14.80;90.20;;;;;;5111066;27;20039;-83
2022/03/12 10:01:22;;;;;;;11.68;9.60;;;14.50;91.10;;;;;;5131065;27;20039;-84
2022/03/12 10:03:49;;;;;;;12.50;9.00;;;14.50;91.40;;;;;;5095770;27;20132;-84
2022/03/12 10:06:17;;;;;;;11.10;9.00;;;14.30;92.90;;;;;;5106382;27;20390;-83
2022/03/12 10:08:44;;;;;;;11.48;8.80;;;14.50;93.50;;;;;;5096725;27;20130;-83
2022/03/12 10:11:09;;;;;;;10.95;8.70;;;14.60;93.90;;;;;;5129361;27;20054;-84
2022/03/12 10:13:35;;;;;;;11.35;8.68;;;14.80;93.70;;;;;;5131385;27;20043;-84
2022/03/12 10:16:01;;;;;;;9.38;8.30;;;15.00;93.80;;;;;;5129490;27;20039;-85
2022/03/12 10:18:27;;;;;;;11.90;9.32;;;15.20;93.30;;;;;;5113966;27;20391;-83
2022/03/12 10:20:53;;;;;;;12.10;9.63;;;14.90;93.30;;;;;;5130758;27;20027;-83
2022/03/12 10:23:19;;;;;;;13.20;9.20;;;14.90;94.70;;;;;;5123169;27;20081;-82
2022/03/12 10:25:45;;;;;;;11.82;9.48;;;14.80;95.40;;;;;;5080445;27;20127;-82
2022/03/12 10:28:12;;;;;;;11.35;9.43;;;14.90;96.10;;;;;;5130596;27;20108;-83
2022/03/12 10:30:38;;;;;;;13.40;9.10;;;14.80;97.10;;;;;;5096526;27;20405;-83
2022/03/12 10:33:04;;;;;;;10.27;8.30;;;14.70;98.30;;;;;;5093029;27;20449;-83
2022/03/12 10:35:37;;;;;;;18.50;9.55;;;14.60;99.80;;;;;;5110812;27;20051;-84
2022/03/12 10:38:12;;;;;;;13.10;9.50;;;14.00;99.90;;;;;;5126464;27;20536;-84
2022/03/12 10:40:38;;;;;;;10.77;8.98;;;14.20;99.90;;;;;;5129981;27;20487;-83
2022/03/12 10:43:12;;;;;;;14.27;9.88;;;14.30;99.90;;;;;;5094090;27;20529;-83
2022/03/12 10:45:49;;;;;;;9.80;8.68;;;14.10;99.90;;;;;;5130544;27;20204;-87
2022/03/12 10:48:19;;;;;;;11.50;9.02;;;14.40;99.90;;;;;;5094418;27;20060;-85
2022/03/12 10:50:49;;;;;;;11.93;8.93;;;14.50;99.90;;;;;;5098287;27;20119;-86
2022/03/12 10:53:15;;;;;;;10.13;8.52;;;14.60;99.90;;;;;;5115007;27;20071;-84
2022/03/12 10:55:46;;;;;;;11.77;9.65;;;14.40;99.90;;;;;;5102433;27;20452;-86
2022/03/12 10:58:23;;;;;;;13.68;10.00;;;14.50;99.90;;;;;;5115500;27;20126;-86
2022/03/12 11:00:57;;;;;;;12.20;9.07;;;14.30;99.90;;;;;;5096838;27;20043;-85
2022/03/12 11:03:25;;;;;;;15.90;10.07;;;14.00;99.90;;;;;;5093945;28;20454;-85
2022/03/12 11:05:52;;;;;;;10.30;9.07;;;14.00;99.90;;;;;;5110248;28;20059;-84
2022/03/12 11:08:26;;;;;;;13.45;9.18;;;14.10;99.90;;;;;;5076477;28;20043;-85
2022/03/12 11:10:59;;;;;;;10.73;9.07;;;14.10;99.90;;;;;;5103301;27;20078;-82
2022/03/12 11:14:04;;;;;;;14.30;10.23;;;14.50;99.90;;;;;;5117566;27;20100;-82
2022/03/12 11:16:27;;;;;;;10.90;8.52;;;14.50;99.90;;;;;;5117818;27;20043;-82
2022/03/12 11:18:53;;;;;;;10.80;8.52;;;14.60;99.90;;;;;;5124199;27;20107;-81
2022/03/12 11:21:51;;;;;;;13.57;9.57;;;14.30;99.90;;;;;;5145090;27;20052;-82
2022/03/12 11:24:23;;;;;;;12.77;9.43;;;14.10;99.90;;;;;;5129504;27;20051;-83
2022/03/12 11:26:50;;;;;;;17.23;9.85;;;14.30;99.90;;;;;;5130084;27;20049;-82
2022/03/12 11:29:17;;;;;;;13.07;9.57;;;14.10;99.90;;;;;;5112768;27;20058;-83
2022/03/12 11:31:49;;;;;;;14.00;9.23;;;14.20;99.90;;;;;;5097006;27;20059;-83
2022/03/12 11:34:19;;;;;;;12.18;9.65;;;14.10;99.90;;;;;;5113321;27;20385;-83
2022/03/12 11:36:59;;;;;;;13.15;9.65;;;14.30;99.90;;;;;;5131053;27;20480;-83
2022/03/12 11:39:30;;;;;;;12.07;9.48;;;14.40;99.90;;;;;;5130461;27;20125;-83
2022/03/12 11:42:06;;;;;;;12.00;9.23;;;14.50;99.90;;;;;;5112965;27;20045;-84
2022/03/12 11:44:33;;;;;;;12.68;9.00;;;14.50;99.90;;;;;;5114116;27;20138;-83
2022/03/12 11:46:59;;;;;;;14.90;9.07;;;14.50;99.90;;;;;;5113399;27;20407;-84
2022/03/12 11:49:24;;;;;;;19.85;10.48;;;14.40;99.90;;;;;;5112229;27;20099;-82
2022/03/12 11:51:52;;;;;;;11.32;9.25;;;14.40;99.90;;;;;;5113703;27;20062;-80
2022/03/12 11:54:18;;;;;;;14.43;9.23;;;14.50;99.90;;;;;;5110314;27;20116;-80
2022/03/12 11:56:44;;;;;;;12.52;9.38;;;14.50;99.90;;;;;;5129498;27;20107;-80
2022/03/12 11:59:10;;;;;;;13.05;9.07;;;14.50;99.90;;;;;;5130033;27;20043;-81
2022/03/12 12:01:37;;;;;;;13.77;9.63;;;14.40;99.90;;;;;;5130709;27;20050;-81
2022/03/12 12:04:03;;;;;;;12.52;8.80;;;14.20;99.90;;;;;;5111680;27;20083;-81
2022/03/12 12:06:28;;;;;;;12.65;8.90;;;14.10;99.90;;;;;;5128509;27;20047;-81
2022/03/12 12:08:55;;;;;;;13.40;9.05;;;14.00;99.90;;;;;;5105688;27;20096;-81
2022/03/12 12:11:22;;;;;;;12.13;9.40;;;14.00;99.90;;;;;;5126255;27;20052;-81
2022/03/12 12:13:48;;;;;;;11.35;8.38;;;14.00;99.90;;;;;;5123582;27;20043;-81
2022/03/12 12:16:16;;;;;;;10.20;8.68;;;14.10;99.90;;;;;;5126303;27;20054;-82
2022/03/12 12:18:41;;;;;;;10.27;8.73;;;14.00;99.90;;;;;;5111613;28;20035;-80
2022/03/12 12:21:14;;;;;;;11.20;7.88;;;14.30;99.90;;;;;;5121626;27;20035;-79
2022/03/12 12:23:39;;;;;;;13.90;8.10;;;14.60;99.90;;;;;;5075358;28;20112;-80
2022/03/12 12:26:09;;;;;;;11.60;8.43;;;14.70;99.90;;;;;;5128201;28;20059;-81
2022/03/12 12:28:51;;;;;;;12.20;7.85;;;14.70;99.90;;;;;;5123927;28;20430;-80
2022/03/12 12:31:24;;;;;;;12.85;7.63;;;14.70;99.90;;;;;;5110173;28;20078;-80
2022/03/12 12:33:50;;;;;;;11.05;7.38;;;14.90;99.90;;;;;;5123114;28;20047;-81
2022/03/12 12:36:17;;;;;;;11.20;7.10;;;14.80;99.90;;;;;;5127950;28;20047;-82
2022/03/12 12:39:08;;;;;;;10.20;7.20;;;14.80;99.90;;;;;;5096079;28;20103;-82
2022/03/12 12:41:54;;;;;;;11.82;6.78;;;14.70;99.90;;;;;;5112661;28;20039;-82
2022/03/12 12:44:39;;;;;;;10.18;7.03;;;14.80;99.90;;;;;;5113598;28;20047;-82
2022/03/12 12:47:05;;;;;;;11.73;7.40;;;14.90;99.90;;;;;;5134922;28;20048;-83